sensor_id;sensor_type;location;lat;lon;timestamp;temperature;humidity
36594;DHT22;22603;47.900;8.146;2022-12-07T00:02:27;1.00;99.90
36594;DHT22;22603;47.900;8.146;2022-12-07T00:05:16;1.00;99.90
36594;DHT22;22603;47.900;8.146;2022-12-07T00:08:04;1.00;99.90
36594;DHT22;22603;47.900;8.146;2022-12-07T00:10:51;1.00;99.90
36594;DHT22;22603;47.900;8.146;2022-12-07T00:13:39;1.00;99.90
36594;DHT22;22603;47.900;8.146;2022-12-07T00:16:28;1.10;99.90
36594;DHT22;22603;47.900;8.146;2022-12-07T00:19:16;1.10;99.90
36594;DHT22;22603;47.900;8.146;2022-12-07T00:22:05;1.10;99.90
36594;DHT22;22603;47.900;8.146;2022-12-07T00:24:52;1.10;99.90
36594;DHT22;22603;47.900;8.146;2022-12-07T00:27:39;1.10;99.90
36594;DHT22;22603;47.900;8.146;2022-12-07T00:30:27;1.10;99.90
36594;DHT22;22603;47.900;8.146;2022-12-07T00:33:14;1.10;99.90
36594;DHT22;22603;47.900;8.146;2022-12-07T00:36:03;1.10;99.90
36594;DHT22;22603;47.900;8.146;2022-12-07T00:38:52;1.10;99.90
36594;DHT22;22603;47.900;8.146;2022-12-07T00:41:39;1.20;99.90
36594;DHT22;22603;47.900;8.146;2022-12-07T00:44:26;1.20;99.90
36594;DHT22;22603;47.900;8.146;2022-12-07T00:47:13;1.10;99.90
36594;DHT22;22603;47.900;8.146;2022-12-07T00:50:00;1.20;99.90
36594;DHT22;22603;47.900;8.146;2022-12-07T00:52:48;1.20;99.90
36594;DHT22;22603;47.900;8.146;2022-12-07T00:55:37;1.10;99.90
36594;DHT22;22603;47.900;8.146;2022-12-07T00:58:24;1.10;99.90
36594;DHT22;22603;47.900;8.146;2022-12-07T01:01:11;1.10;99.90
36594;DHT22;22603;47.900;8.146;2022-12-07T01:03:58;1.10;99.90
36594;DHT22;22603;47.900;8.146;2022-12-07T01:06:46;1.10;99.90
36594;DHT22;22603;47.900;8.146;2022-12-07T01:09:34;1.10;99.90
36594;DHT22;22603;47.900;8.146;2022-12-07T01:12:23;1.00;99.90
36594;DHT22;22603;47.900;8.146;2022-12-07T01:15:11;1.10;99.90
36594;DHT22;22603;47.900;8.146;2022-12-07T01:17:58;1.00;99.90
36594;DHT22;22603;47.900;8.146;2022-12-07T01:20:45;1.00;99.90
36594;DHT22;22603;47.900;8.146;2022-12-07T01:23:44;0.90;99.90
36594;DHT22;22603;47.900;8.146;2022-12-07T01:26:31;0.90;99.90
36594;DHT22;22603;47.900;8.146;2022-12-07T01:29:20;0.90;99.90
36594;DHT22;22603;47.900;8.146;2022-12-07T01:32:08;1.00;99.90
36594;DHT22;22603;47.900;8.146;2022-12-07T01:34:54;0.90;99.90
36594;DHT22;22603;47.900;8.146;2022-12-07T01:37:41;0.90;99.90
36594;DHT22;22603;47.900;8.146;2022-12-07T01:40:28;0.90;99.90
36594;DHT22;22603;47.900;8.146;2022-12-07T01:43:17;1.00;99.90
36594;DHT22;22603;47.900;8.146;2022-12-07T01:46:06;1.00;99.90
36594;DHT22;22603;47.900;8.146;2022-12-07T01:48:54;0.90;99.90
36594;DHT22;22603;47.900;8.146;2022-12-07T01:51:42;0.90;99.90
36594;DHT22;22603;47.900;8.146;2022-12-07T01:54:30;0.90;99.90
36594;DHT22;22603;47.900;8.146;2022-12-07T01:57:18;0.90;99.90
36594;DHT22;22603;47.900;8.146;2022-12-07T02:00:07;0.90;99.90
36594;DHT22;22603;47.900;8.146;2022-12-07T02:03:01;0.90;99.90
36594;DHT22;22603;47.900;8.146;2022-12-07T02:05:51;0.90;99.90
36594;DHT22;22603;47.900;8.146;2022-12-07T02:08:40;0.90;99.90
36594;DHT22;22603;47.900;8.146;2022-12-07T02:11:28;0.90;99.90
36594;DHT22;22603;47.900;8.146;2022-12-07T02:14:15;0.90;99.90
36594;DHT22;22603;47.900;8.146;2022-12-07T02:17:08;0.90;99.90
36594;DHT22;22603;47.900;8.146;2022-12-07T02:20:20;0.90;99.90
36594;DHT22;22603;47.900;8.146;2022-12-07T02:23:40;0.90;99.90
36594;DHT22;22603;47.900;8.146;2022-12-07T02:26:54;0.80;99.90
36594;DHT22;22603;47.900;8.146;2022-12-07T02:29:47;0.80;99.90
36594;DHT22;22603;47.900;8.146;2022-12-07T02:32:44;0.80;99.90
36594;DHT22;22603;47.900;8.146;2022-12-07T02:35:37;0.80;99.90
36594;DHT22;22603;47.900;8.146;2022-12-07T02:38:31;0.80;99.90
36594;DHT22;22603;47.900;8.146;2022-12-07T02:41:25;0.80;99.90
36594;DHT22;22603;47.900;8.146;2022-12-07T02:44:16;0.90;99.90
36594;DHT22;22603;47.900;8.146;2022-12-07T02:47:10;0.90;99.90
36594;DHT22;22603;47.900;8.146;2022-12-07T02:49:59;0.90;99.90
36594;DHT22;22603;47.900;8.146;2022-12-07T02:52:46;0.90;99.90
36594;DHT22;22603;47.900;8.146;2022-12-07T02:55:37;0.90;99.90
36594;DHT22;22603;47.900;8.146;2022-12-07T02:58:32;0.90;99.90
36594;DHT22;22603;47.900;8.146;2022-12-07T03:01:28;0.80;99.90
36594;DHT22;22603;47.900;8.146;2022-12-07T03:04:31;0.90;99.90
36594;DHT22;22603;47.900;8.146;2022-12-07T03:07:26;0.90;99.90
36594;DHT22;22603;47.900;8.146;2022-12-07T03:10:19;0.90;99.90
36594;DHT22;22603;47.900;8.146;2022-12-07T03:13:12;0.90;99.90
36594;DHT22;22603;47.900;8.146;2022-12-07T03:16:08;0.80;99.90
36594;DHT22;22603;47.900;8.146;2022-12-07T03:18:58;0.70;99.90
36594;DHT22;22603;47.900;8.146;2022-12-07T03:21:54;0.70;99.90
36594;DHT22;22603;47.900;8.146;2022-12-07T03:24:49;0.70;99.90
36594;DHT22;22603;47.900;8.146;2022-12-07T03:27:42;0.60;99.90
36594;DHT22;22603;47.900;8.146;2022-12-07T03:30:34;0.60;99.90
36594;DHT22;22603;47.900;8.146;2022-12-07T03:33:28;0.70;99.90
36594;DHT22;22603;47.900;8.146;2022-12-07T03:36:21;0.60;99.90
36594;DHT22;22603;47.900;8.146;2022-12-07T03:39:19;0.60;99.90
36594;DHT22;22603;47.900;8.146;2022-12-07T03:42:10;0.60;99.90
36594;DHT22;22603;47.900;8.146;2022-12-07T03:44:57;0.60;99.90
36594;DHT22;22603;47.900;8.146;2022-12-07T03:47:48;0.60;99.90
36594;DHT22;22603;47.900;8.146;2022-12-07T03:50:42;0.60;99.90
36594;DHT22;22603;47.900;8.146;2022-12-07T03:53:35;0.70;99.90
36594;DHT22;22603;47.900;8.146;2022-12-07T03:56:26;0.60;99.90
36594;DHT22;22603;47.900;8.146;2022-12-07T03:59:16;0.60;99.90
36594;DHT22;22603;47.900;8.146;2022-12-07T04:02:05;0.60;99.90
36594;DHT22;22603;47.900;8.146;2022-12-07T04:04:52;0.60;99.90
36594;DHT22;22603;47.900;8.146;2022-12-07T04:07:40;0.50;99.90
36594;DHT22;22603;47.900;8.146;2022-12-07T04:10:28;0.50;99.90
36594;DHT22;22603;47.900;8.146;2022-12-07T04:13:17;0.50;99.90
36594;DHT22;22603;47.900;8.146;2022-12-07T04:16:04;0.60;99.90
36594;DHT22;22603;47.900;8.146;2022-12-07T04:18:51;0.60;99.90
36594;DHT22;22603;47.900;8.146;2022-12-07T04:21:38;0.60;99.90
36594;DHT22;22603;47.900;8.146;2022-12-07T04:24:26;0.60;99.90
36594;DHT22;22603;47.900;8.146;2022-12-07T04:27:14;0.60;99.90
36594;DHT22;22603;47.900;8.146;2022-12-07T04:30:03;0.60;99.90
36594;DHT22;22603;47.900;8.146;2022-12-07T04:32:50;0.60;99.90
36594;DHT22;22603;47.900;8.146;2022-12-07T04:35:37;0.50;99.90
36594;DHT22;22603;47.900;8.146;2022-12-07T04:38:25;0.50;99.90
36594;DHT22;22603;47.900;8.146;2022-12-07T04:41:13;0.50;99.90
36594;DHT22;22603;47.900;8.146;2022-12-07T04:44:01;0.50;99.90
36594;DHT22;22603;47.900;8.146;2022-12-07T04:46:50;0.50;99.90
36594;DHT22;22603;47.900;8.146;2022-12-07T04:49:37;0.50;99.90
36594;DHT22;22603;47.900;8.146;2022-12-07T04:52:24;0.50;99.90
36594;DHT22;22603;47.900;8.146;2022-12-07T04:55:11;0.40;99.90
36594;DHT22;22603;47.900;8.146;2022-12-07T04:57:58;0.40;99.90
36594;DHT22;22603;47.900;8.146;2022-12-07T05:00:45;0.50;99.90
36594;DHT22;22603;47.900;8.146;2022-12-07T05:03:35;0.50;99.90
36594;DHT22;22603;47.900;8.146;2022-12-07T05:06:22;0.50;99.90
36594;DHT22;22603;47.900;8.146;2022-12-07T05:09:10;0.50;99.90
36594;DHT22;22603;47.900;8.146;2022-12-07T05:11:57;0.50;99.90
36594;DHT22;22603;47.900;8.146;2022-12-07T05:14:46;0.40;99.90
36594;DHT22;22603;47.900;8.146;2022-12-07T05:17:33;0.30;99.90
36594;DHT22;22603;47.900;8.146;2022-12-07T05:20:22;0.20;99.90
36594;DHT22;22603;47.900;8.146;2022-12-07T05:23:10;0.30;99.90
36594;DHT22;22603;47.900;8.146;2022-12-07T05:25:58;0.20;99.90
36594;DHT22;22603;47.900;8.146;2022-12-07T05:28:44;0.20;99.90
36594;DHT22;22603;47.900;8.146;2022-12-07T05:31:32;0.20;99.90
36594;DHT22;22603;47.900;8.146;2022-12-07T05:34:20;0.20;99.90
36594;DHT22;22603;47.900;8.146;2022-12-07T05:37:08;0.20;99.90
36594;DHT22;22603;47.900;8.146;2022-12-07T05:39:55;0.20;99.90
36594;DHT22;22603;47.900;8.146;2022-12-07T05:42:42;0.20;99.90
36594;DHT22;22603;47.900;8.146;2022-12-07T05:45:30;0.20;99.90
36594;DHT22;22603;47.900;8.146;2022-12-07T05:48:17;0.10;99.90
36594;DHT22;22603;47.900;8.146;2022-12-07T05:51:04;0.10;99.90
36594;DHT22;22603;47.900;8.146;2022-12-07T05:53:53;0.10;99.90
36594;DHT22;22603;47.900;8.146;2022-12-07T05:56:40;0.20;99.90
36594;DHT22;22603;47.900;8.146;2022-12-07T05:59:27;0.20;99.90
36594;DHT22;22603;47.900;8.146;2022-12-07T06:02:16;0.20;99.90
36594;DHT22;22603;47.900;8.146;2022-12-07T06:05:06;0.10;99.90
36594;DHT22;22603;47.900;8.146;2022-12-07T06:07:58;0.20;99.90
36594;DHT22;22603;47.900;8.146;2022-12-07T06:10:52;0.10;99.90
36594;DHT22;22603;47.900;8.146;2022-12-07T06:13:59;0.10;99.90
36594;DHT22;22603;47.900;8.146;2022-12-07T06:16:45;0.10;99.90
36594;DHT22;22603;47.900;8.146;2022-12-07T06:19:33;0.00;99.90
36594;DHT22;22603;47.900;8.146;2022-12-07T06:22:20;0.00;99.90
36594;DHT22;22603;47.900;8.146;2022-12-07T06:25:08;0.00;99.90
36594;DHT22;22603;47.900;8.146;2022-12-07T06:27:57;0.00;99.90
36594;DHT22;22603;47.900;8.146;2022-12-07T06:30:44;0.00;99.90
36594;DHT22;22603;47.900;8.146;2022-12-07T06:33:31;0.00;99.90
36594;DHT22;22603;47.900;8.146;2022-12-07T06:36:18;0.00;99.90
36594;DHT22;22603;47.900;8.146;2022-12-07T06:39:11;-0.10;99.90
36594;DHT22;22603;47.900;8.146;2022-12-07T06:41:59;-0.10;99.90
36594;DHT22;22603;47.900;8.146;2022-12-07T06:44:47;-0.10;99.90
36594;DHT22;22603;47.900;8.146;2022-12-07T06:47:35;-0.20;99.90
36594;DHT22;22603;47.900;8.146;2022-12-07T06:50:28;-0.20;99.90
36594;DHT22;22603;47.900;8.146;2022-12-07T06:53:15;-0.30;99.90
36594;DHT22;22603;47.900;8.146;2022-12-07T06:56:02;-0.40;99.90
36594;DHT22;22603;47.900;8.146;2022-12-07T06:58:49;-0.40;99.90
36594;DHT22;22603;47.900;8.146;2022-12-07T07:01:37;-0.50;99.90
36594;DHT22;22603;47.900;8.146;2022-12-07T07:04:25;-0.60;99.90
36594;DHT22;22603;47.900;8.146;2022-12-07T07:07:12;-0.60;99.90
36594;DHT22;22603;47.900;8.146;2022-12-07T07:09:59;-0.70;99.90
36594;DHT22;22603;47.900;8.146;2022-12-07T07:12:47;-0.80;99.90
36594;DHT22;22603;47.900;8.146;2022-12-07T07:15:41;-0.80;99.90
36594;DHT22;22603;47.900;8.146;2022-12-07T07:18:29;-0.90;99.90
36594;DHT22;22603;47.900;8.146;2022-12-07T07:21:16;-1.00;99.90
36594;DHT22;22603;47.900;8.146;2022-12-07T07:24:04;-1.00;99.90
36594;DHT22;22603;47.900;8.146;2022-12-07T07:26:52;-1.10;99.90
36594;DHT22;22603;47.900;8.146;2022-12-07T07:29:40;-1.10;99.90
36594;DHT22;22603;47.900;8.146;2022-12-07T07:32:27;-1.10;99.90
36594;DHT22;22603;47.900;8.146;2022-12-07T07:35:16;-1.10;99.90
36594;DHT22;22603;47.900;8.146;2022-12-07T07:38:03;-1.20;99.90
36594;DHT22;22603;47.900;8.146;2022-12-07T07:40:50;-1.10;99.90
36594;DHT22;22603;47.900;8.146;2022-12-07T07:43:37;-1.20;99.90
36594;DHT22;22603;47.900;8.146;2022-12-07T07:46:24;-1.20;99.90
36594;DHT22;22603;47.900;8.146;2022-12-07T07:49:12;-1.20;99.90
36594;DHT22;22603;47.900;8.146;2022-12-07T07:52:00;-1.20;99.90
36594;DHT22;22603;47.900;8.146;2022-12-07T07:54:47;-1.20;99.90
36594;DHT22;22603;47.900;8.146;2022-12-07T07:57:34;-1.20;99.90
36594;DHT22;22603;47.900;8.146;2022-12-07T08:00:22;-1.20;99.90
36594;DHT22;22603;47.900;8.146;2022-12-07T08:03:09;-1.30;99.90
36594;DHT22;22603;47.900;8.146;2022-12-07T08:05:56;-1.30;99.90
36594;DHT22;22603;47.900;8.146;2022-12-07T08:08:45;-1.30;99.90
36594;DHT22;22603;47.900;8.146;2022-12-07T08:11:32;-1.30;99.90
36594;DHT22;22603;47.900;8.146;2022-12-07T08:14:19;-1.20;99.90
36594;DHT22;22603;47.900;8.146;2022-12-07T08:17:06;-0.70;99.90
36594;DHT22;22603;47.900;8.146;2022-12-07T08:19:54;0.20;99.90
36594;DHT22;22603;47.900;8.146;2022-12-07T08:22:41;1.20;99.90
36594;DHT22;22603;47.900;8.146;2022-12-07T08:25:31;2.70;99.90
36594;DHT22;22603;47.900;8.146;2022-12-07T08:28:18;4.20;99.90
36594;DHT22;22603;47.900;8.146;2022-12-07T08:31:08;4.20;99.90
36594;DHT22;22603;47.900;8.146;2022-12-07T08:33:55;5.00;99.90
36594;DHT22;22603;47.900;8.146;2022-12-07T08:36:43;6.40;99.90
36594;DHT22;22603;47.900;8.146;2022-12-07T08:39:30;7.20;99.90
36594;DHT22;22603;47.900;8.146;2022-12-07T08:42:20;7.50;99.90
36594;DHT22;22603;47.900;8.146;2022-12-07T08:45:11;8.20;99.90
36594;DHT22;22603;47.900;8.146;2022-12-07T08:48:03;8.30;99.90
36594;DHT22;22603;47.900;8.146;2022-12-07T08:50:53;8.80;99.90
36594;DHT22;22603;47.900;8.146;2022-12-07T08:53:40;8.20;99.90
36594;DHT22;22603;47.900;8.146;2022-12-07T08:56:27;8.60;99.90
36594;DHT22;22603;47.900;8.146;2022-12-07T08:59:17;8.40;99.90
36594;DHT22;22603;47.900;8.146;2022-12-07T09:02:08;8.80;99.90
36594;DHT22;22603;47.900;8.146;2022-12-07T09:04:55;9.00;99.90
36594;DHT22;22603;47.900;8.146;2022-12-07T09:07:47;9.00;99.90
36594;DHT22;22603;47.900;8.146;2022-12-07T09:10:35;9.00;99.90
36594;DHT22;22603;47.900;8.146;2022-12-07T09:13:23;9.50;99.90
36594;DHT22;22603;47.900;8.146;2022-12-07T09:16:11;8.80;99.90
36594;DHT22;22603;47.900;8.146;2022-12-07T09:18:58;7.90;99.90
36594;DHT22;22603;47.900;8.146;2022-12-07T09:21:45;7.10;99.90
36594;DHT22;22603;47.900;8.146;2022-12-07T09:24:34;7.60;99.90
36594;DHT22;22603;47.900;8.146;2022-12-07T09:27:21;8.20;99.90
36594;DHT22;22603;47.900;8.146;2022-12-07T09:30:09;8.30;99.90
36594;DHT22;22603;47.900;8.146;2022-12-07T09:32:57;7.90;99.90
36594;DHT22;22603;47.900;8.146;2022-12-07T09:35:45;8.00;99.90
36594;DHT22;22603;47.900;8.146;2022-12-07T09:38:32;8.30;99.90
36594;DHT22;22603;47.900;8.146;2022-12-07T09:41:19;8.20;99.90
36594;DHT22;22603;47.900;8.146;2022-12-07T09:44:11;8.50;99.90
36594;DHT22;22603;47.900;8.146;2022-12-07T09:46:59;9.00;99.90
36594;DHT22;22603;47.900;8.146;2022-12-07T09:49:48;9.00;99.90
36594;DHT22;22603;47.900;8.146;2022-12-07T09:52:35;8.80;99.90
36594;DHT22;22603;47.900;8.146;2022-12-07T09:55:26;8.90;99.90
36594;DHT22;22603;47.900;8.146;2022-12-07T09:58:20;9.40;99.90
36594;DHT22;22603;47.900;8.146;2022-12-07T10:01:13;9.80;99.90
36594;DHT22;22603;47.900;8.146;2022-12-07T10:04:06;10.10;99.90
36594;DHT22;22603;47.900;8.146;2022-12-07T10:06:57;10.30;99.90
36594;DHT22;22603;47.900;8.146;2022-12-07T10:10:33;10.40;99.90
36594;DHT22;22603;47.900;8.146;2022-12-07T10:13:43;10.70;99.90
36594;DHT22;22603;47.900;8.146;2022-12-07T10:16:41;11.00;99.90
36594;DHT22;22603;47.900;8.146;2022-12-07T10:19:43;10.80;99.90
36594;DHT22;22603;47.900;8.146;2022-12-07T10:22:31;9.50;99.90
36594;DHT22;22603;47.900;8.146;2022-12-07T10:25:20;9.30;99.90
36594;DHT22;22603;47.900;8.146;2022-12-07T10:28:13;8.10;99.90
36594;DHT22;22603;47.900;8.146;2022-12-07T10:31:02;8.40;99.90
36594;DHT22;22603;47.900;8.146;2022-12-07T10:33:52;8.50;99.90
36594;DHT22;22603;47.900;8.146;2022-12-07T10:36:39;8.30;99.90
36594;DHT22;22603;47.900;8.146;2022-12-07T10:39:28;7.50;99.90
36594;DHT22;22603;47.900;8.146;2022-12-07T10:42:18;7.90;99.90
36594;DHT22;22603;47.900;8.146;2022-12-07T10:45:09;7.60;99.90
36594;DHT22;22603;47.900;8.146;2022-12-07T10:48:02;7.30;99.90
36594;DHT22;22603;47.900;8.146;2022-12-07T10:51:04;6.80;99.90
36594;DHT22;22603;47.900;8.146;2022-12-07T10:54:01;6.40;99.90
36594;DHT22;22603;47.900;8.146;2022-12-07T10:57:07;6.90;99.90
36594;DHT22;22603;47.900;8.146;2022-12-07T11:00:08;7.00;99.90
36594;DHT22;22603;47.900;8.146;2022-12-07T11:03:16;6.30;99.90
36594;DHT22;22603;47.900;8.146;2022-12-07T11:06:14;5.50;99.90
36594;DHT22;22603;47.900;8.146;2022-12-07T11:09:22;5.20;99.90
36594;DHT22;22603;47.900;8.146;2022-12-07T11:12:47;5.40;99.90
36594;DHT22;22603;47.900;8.146;2022-12-07T11:15:48;5.80;99.90
36594;DHT22;22603;47.900;8.146;2022-12-07T11:18:46;6.30;99.90
36594;DHT22;22603;47.900;8.146;2022-12-07T11:21:42;7.70;99.90
36594;DHT22;22603;47.900;8.146;2022-12-07T11:24:35;7.60;99.90
36594;DHT22;22603;47.900;8.146;2022-12-07T11:27:37;6.20;99.90
36594;DHT22;22603;47.900;8.146;2022-12-07T11:30:31;5.50;99.90
36594;DHT22;22603;47.900;8.146;2022-12-07T11:33:24;5.40;99.90
36594;DHT22;22603;47.900;8.146;2022-12-07T11:36:31;5.80;99.90
36594;DHT22;22603;47.900;8.146;2022-12-07T11:39:25;6.50;99.90
36594;DHT22;22603;47.900;8.146;2022-12-07T11:42:15;7.40;99.90
36594;DHT22;22603;47.900;8.146;2022-12-07T11:45:14;7.60;99.90
36594;DHT22;22603;47.900;8.146;2022-12-07T11:48:03;8.80;99.90
36594;DHT22;22603;47.900;8.146;2022-12-07T11:50:54;9.10;99.90
36594;DHT22;22603;47.900;8.146;2022-12-07T11:53:46;7.40;99.90
36594;DHT22;22603;47.900;8.146;2022-12-07T11:56:35;7.50;99.90
36594;DHT22;22603;47.900;8.146;2022-12-07T11:59:27;7.00;99.90
36594;DHT22;22603;47.900;8.146;2022-12-07T12:02:23;7.50;99.90
36594;DHT22;22603;47.900;8.146;2022-12-07T12:05:17;8.70;99.90
36594;DHT22;22603;47.900;8.146;2022-12-07T12:08:13;9.00;99.90
36594;DHT22;22603;47.900;8.146;2022-12-07T12:11:35;9.00;99.90
36594;DHT22;22603;47.900;8.146;2022-12-07T12:14:40;8.70;99.90
36594;DHT22;22603;47.900;8.146;2022-12-07T12:17:56;7.60;99.90
36594;DHT22;22603;47.900;8.146;2022-12-07T12:20:49;7.10;99.90
36594;DHT22;22603;47.900;8.146;2022-12-07T12:23:41;6.80;99.90
36594;DHT22;22603;47.900;8.146;2022-12-07T12:26:32;6.50;99.90
36594;DHT22;22603;47.900;8.146;2022-12-07T12:29:21;6.10;99.90
36594;DHT22;22603;47.900;8.146;2022-12-07T12:32:15;5.80;99.90
36594;DHT22;22603;47.900;8.146;2022-12-07T12:35:28;5.60;99.90
36594;DHT22;22603;47.900;8.146;2022-12-07T12:38:33;5.30;99.90
36594;DHT22;22603;47.900;8.146;2022-12-07T12:41:54;5.20;99.90
36594;DHT22;22603;47.900;8.146;2022-12-07T12:45:18;4.90;99.90
36594;DHT22;22603;47.900;8.146;2022-12-07T12:48:28;4.70;99.90
36594;DHT22;22603;47.900;8.146;2022-12-07T12:51:37;4.50;99.90
36594;DHT22;22603;47.900;8.146;2022-12-07T12:54:26;4.30;99.90
36594;DHT22;22603;47.900;8.146;2022-12-07T12:57:29;4.60;99.90
36594;DHT22;22603;47.900;8.146;2022-12-07T13:00:36;4.70;99.90
36594;DHT22;22603;47.900;8.146;2022-12-07T13:03:27;4.70;99.90
36594;DHT22;22603;47.900;8.146;2022-12-07T13:06:20;4.80;99.90
36594;DHT22;22603;47.900;8.146;2022-12-07T13:09:23;4.90;99.90
36594;DHT22;22603;47.900;8.146;2022-12-07T13:12:14;4.90;99.90
36594;DHT22;22603;47.900;8.146;2022-12-07T13:15:03;5.00;99.90
36594;DHT22;22603;47.900;8.146;2022-12-07T13:18:02;5.10;99.90
36594;DHT22;22603;47.900;8.146;2022-12-07T13:20:54;5.20;99.90
36594;DHT22;22603;47.900;8.146;2022-12-07T13:23:54;5.30;99.90
36594;DHT22;22603;47.900;8.146;2022-12-07T13:26:43;5.30;99.90
36594;DHT22;22603;47.900;8.146;2022-12-07T13:29:36;5.20;99.90
36594;DHT22;22603;47.900;8.146;2022-12-07T13:32:25;5.20;99.90
36594;DHT22;22603;47.900;8.146;2022-12-07T13:35:30;5.00;99.90
36594;DHT22;22603;47.900;8.146;2022-12-07T13:38:25;4.90;99.90
36594;DHT22;22603;47.900;8.146;2022-12-07T13:41:15;4.90;99.90
36594;DHT22;22603;47.900;8.146;2022-12-07T13:44:08;4.80;99.90
36594;DHT22;22603;47.900;8.146;2022-12-07T13:47:03;4.60;99.90
36594;DHT22;22603;47.900;8.146;2022-12-07T13:49:54;4.50;99.90
36594;DHT22;22603;47.900;8.146;2022-12-07T13:52:44;4.50;99.90
36594;DHT22;22603;47.900;8.146;2022-12-07T13:55:31;4.30;99.90
36594;DHT22;22603;47.900;8.146;2022-12-07T13:58:19;4.20;99.90
36594;DHT22;22603;47.900;8.146;2022-12-07T14:01:08;4.10;99.90
36594;DHT22;22603;47.900;8.146;2022-12-07T14:03:55;3.80;99.90
36594;DHT22;22603;47.900;8.146;2022-12-07T14:06:48;3.80;99.90
36594;DHT22;22603;47.900;8.146;2022-12-07T14:09:35;3.70;99.90
36594;DHT22;22603;47.900;8.146;2022-12-07T14:12:24;3.70;99.90
36594;DHT22;22603;47.900;8.146;2022-12-07T14:15:20;3.60;99.90
36594;DHT22;22603;47.900;8.146;2022-12-07T14:18:27;3.50;99.90
36594;DHT22;22603;47.900;8.146;2022-12-07T14:21:16;3.60;99.90
36594;DHT22;22603;47.900;8.146;2022-12-07T14:24:15;3.60;99.90
36594;DHT22;22603;47.900;8.146;2022-12-07T14:27:19;3.40;99.90
36594;DHT22;22603;47.900;8.146;2022-12-07T14:30:15;3.40;99.90
36594;DHT22;22603;47.900;8.146;2022-12-07T14:33:04;3.30;99.90
36594;DHT22;22603;47.900;8.146;2022-12-07T14:35:54;3.20;99.90
36594;DHT22;22603;47.900;8.146;2022-12-07T14:38:44;3.00;99.90
36594;DHT22;22603;47.900;8.146;2022-12-07T14:41:31;3.00;99.90
36594;DHT22;22603;47.900;8.146;2022-12-07T14:44:35;2.80;99.90
36594;DHT22;22603;47.900;8.146;2022-12-07T14:47:22;2.80;99.90
36594;DHT22;22603;47.900;8.146;2022-12-07T14:50:32;2.80;99.90
36594;DHT22;22603;47.900;8.146;2022-12-07T14:53:29;2.70;99.90
36594;DHT22;22603;47.900;8.146;2022-12-07T14:56:16;2.60;99.90
36594;DHT22;22603;47.900;8.146;2022-12-07T14:59:03;2.50;99.90
36594;DHT22;22603;47.900;8.146;2022-12-07T15:01:51;2.50;99.90
36594;DHT22;22603;47.900;8.146;2022-12-07T15:04:38;2.50;99.90
36594;DHT22;22603;47.900;8.146;2022-12-07T15:07:27;2.40;99.90
36594;DHT22;22603;47.900;8.146;2022-12-07T15:10:19;2.30;99.90
36594;DHT22;22603;47.900;8.146;2022-12-07T15:13:09;2.30;99.90
36594;DHT22;22603;47.900;8.146;2022-12-07T15:16:18;2.30;99.90
36594;DHT22;22603;47.900;8.146;2022-12-07T15:19:08;2.20;99.90
36594;DHT22;22603;47.900;8.146;2022-12-07T15:22:13;2.20;99.90
36594;DHT22;22603;47.900;8.146;2022-12-07T15:25:01;2.10;99.90
36594;DHT22;22603;47.900;8.146;2022-12-07T15:27:51;2.00;99.90
36594;DHT22;22603;47.900;8.146;2022-12-07T15:30:39;1.90;99.90
36594;DHT22;22603;47.900;8.146;2022-12-07T15:33:26;1.90;99.90
36594;DHT22;22603;47.900;8.146;2022-12-07T15:36:19;1.90;99.90
36594;DHT22;22603;47.900;8.146;2022-12-07T15:39:06;1.90;99.90
36594;DHT22;22603;47.900;8.146;2022-12-07T15:42:00;1.90;99.90
36594;DHT22;22603;47.900;8.146;2022-12-07T15:44:51;1.80;99.90
36594;DHT22;22603;47.900;8.146;2022-12-07T15:47:51;1.70;99.90
36594;DHT22;22603;47.900;8.146;2022-12-07T15:51:04;1.70;99.90
36594;DHT22;22603;47.900;8.146;2022-12-07T15:53:52;1.70;99.90
36594;DHT22;22603;47.900;8.146;2022-12-07T15:56:38;1.60;99.90
36594;DHT22;22603;47.900;8.146;2022-12-07T15:59:26;1.60;99.90
36594;DHT22;22603;47.900;8.146;2022-12-07T16:02:22;1.50;99.90
36594;DHT22;22603;47.900;8.146;2022-12-07T16:05:28;1.50;99.90
36594;DHT22;22603;47.900;8.146;2022-12-07T16:08:29;1.50;99.90
36594;DHT22;22603;47.900;8.146;2022-12-07T16:11:21;1.30;99.90
36594;DHT22;22603;47.900;8.146;2022-12-07T16:14:08;1.20;99.90
36594;DHT22;22603;47.900;8.146;2022-12-07T16:16:55;1.20;99.90
36594;DHT22;22603;47.900;8.146;2022-12-07T16:19:44;1.10;99.90
36594;DHT22;22603;47.900;8.146;2022-12-07T16:22:31;1.10;99.90
36594;DHT22;22603;47.900;8.146;2022-12-07T16:25:18;1.00;99.90
36594;DHT22;22603;47.900;8.146;2022-12-07T16:28:05;0.90;99.90
36594;DHT22;22603;47.900;8.146;2022-12-07T16:31:00;0.90;99.90
36594;DHT22;22603;47.900;8.146;2022-12-07T16:33:48;0.80;99.90
36594;DHT22;22603;47.900;8.146;2022-12-07T16:36:37;0.70;99.90
36594;DHT22;22603;47.900;8.146;2022-12-07T16:39:45;0.70;99.90
36594;DHT22;22603;47.900;8.146;2022-12-07T16:42:33;0.60;99.90
36594;DHT22;22603;47.900;8.146;2022-12-07T16:45:20;0.50;99.90
36594;DHT22;22603;47.900;8.146;2022-12-07T16:48:07;0.40;99.90
36594;DHT22;22603;47.900;8.146;2022-12-07T16:51:09;0.30;99.90
36594;DHT22;22603;47.900;8.146;2022-12-07T16:54:16;0.20;99.90
36594;DHT22;22603;47.900;8.146;2022-12-07T16:57:03;0.10;99.90
36594;DHT22;22603;47.900;8.146;2022-12-07T17:02:37;-0.10;99.90
36594;DHT22;22603;47.900;8.146;2022-12-07T17:05:25;-0.10;99.90
36594;DHT22;22603;47.900;8.146;2022-12-07T17:08:13;-0.20;99.90
36594;DHT22;22603;47.900;8.146;2022-12-07T17:11:09;-0.30;99.90
36594;DHT22;22603;47.900;8.146;2022-12-07T17:13:56;-0.40;99.90
36594;DHT22;22603;47.900;8.146;2022-12-07T17:17:01;-0.60;99.90
36594;DHT22;22603;47.900;8.146;2022-12-07T17:19:49;-0.70;99.90
36594;DHT22;22603;47.900;8.146;2022-12-07T17:22:36;-0.80;99.90
36594;DHT22;22603;47.900;8.146;2022-12-07T17:25:23;-0.80;99.90
36594;DHT22;22603;47.900;8.146;2022-12-07T17:28:12;-0.90;99.90
36594;DHT22;22603;47.900;8.146;2022-12-07T17:30:59;-1.00;99.90
36594;DHT22;22603;47.900;8.146;2022-12-07T17:33:47;-1.00;99.90
36594;DHT22;22603;47.900;8.146;2022-12-07T17:36:35;-1.10;99.90
36594;DHT22;22603;47.900;8.146;2022-12-07T17:39:22;-1.10;99.90
36594;DHT22;22603;47.900;8.146;2022-12-07T17:42:10;-1.20;99.90
36594;DHT22;22603;47.900;8.146;2022-12-07T17:45:16;-1.20;99.90
36594;DHT22;22603;47.900;8.146;2022-12-07T17:48:04;-1.30;99.90
36594;DHT22;22603;47.900;8.146;2022-12-07T17:50:51;-1.40;99.90
36594;DHT22;22603;47.900;8.146;2022-12-07T17:53:56;-1.40;99.90
36594;DHT22;22603;47.900;8.146;2022-12-07T17:56:45;-1.50;99.90
36594;DHT22;22603;47.900;8.146;2022-12-07T17:59:32;-1.60;99.90
36594;DHT22;22603;47.900;8.146;2022-12-07T18:02:21;-1.60;99.90
36594;DHT22;22603;47.900;8.146;2022-12-07T18:05:11;-1.60;99.90
36594;DHT22;22603;47.900;8.146;2022-12-07T18:08:02;-1.60;99.90
36594;DHT22;22603;47.900;8.146;2022-12-07T18:10:49;-1.70;99.90
36594;DHT22;22603;47.900;8.146;2022-12-07T18:13:43;-1.80;99.90
36594;DHT22;22603;47.900;8.146;2022-12-07T18:16:31;-1.80;99.90
36594;DHT22;22603;47.900;8.146;2022-12-07T18:19:20;-1.80;99.90
36594;DHT22;22603;47.900;8.146;2022-12-07T18:22:07;-1.80;99.90